createdAt,value
2023-09-08T00:02:30.263Z,11.93
2023-09-08T00:04:57.328Z,9.48
2023-09-08T00:07:24.129Z,8.82
2023-09-08T00:09:50.888Z,12.52
2023-09-08T00:14:44.979Z,13.20
2023-09-08T00:17:11.827Z,9.77
2023-09-08T00:22:07.563Z,14.10
2023-09-08T00:24:35.071Z,16.65
2023-09-08T00:27:01.924Z,10.82
2023-09-08T00:29:28.607Z,10.43
2023-09-08T00:34:21.799Z,11.60
2023-09-08T00:36:57.831Z,9.63
2023-09-08T00:39:24.472Z,11.85
2023-09-08T00:41:51.054Z,11.88
2023-09-08T00:44:17.565Z,17.33
2023-09-08T00:46:44.222Z,15.05
2023-09-08T00:51:39.226Z,16.25
2023-09-08T00:54:07.552Z,13.40
2023-09-08T00:56:35.106Z,13.35
2023-09-08T00:59:03.641Z,13.85
2023-09-08T01:01:30.510Z,11.18
2023-09-08T01:03:57.087Z,9.63
2023-09-08T01:06:24.838Z,10.05
2023-09-08T01:08:51.912Z,13.68
2023-09-08T01:11:21.029Z,22.27
2023-09-08T01:13:47.827Z,16.08
2023-09-08T01:18:42.909Z,17.65
2023-09-08T01:24:09.345Z,11.88
2023-09-08T01:26:41.858Z,10.73
2023-09-08T01:29:10.380Z,14.48
2023-09-08T01:31:40.340Z,13.40
2023-09-08T01:34:08.360Z,16.60
2023-09-08T01:36:36.286Z,12.23
2023-09-08T01:39:04.099Z,16.80
2023-09-08T01:41:36.725Z,12.68
2023-09-08T01:44:09.418Z,11.70
2023-09-08T01:46:36.209Z,15.98
2023-09-08T01:49:02.878Z,14.02
2023-09-08T01:51:29.669Z,10.23
2023-09-08T01:56:24.169Z,17.63
2023-09-08T01:58:50.772Z,11.48
2023-09-08T02:01:17.649Z,13.05
2023-09-08T02:03:44.285Z,15.30
2023-09-08T02:06:10.824Z,14.45
2023-09-08T02:08:37.685Z,12.32
2023-09-08T02:11:04.352Z,12.13
2023-09-08T02:13:30.926Z,17.30
2023-09-08T02:15:57.605Z,14.25
2023-09-08T02:20:52.732Z,18.55
2023-09-08T02:23:19.385Z,16.42
2023-09-08T02:25:46.090Z,13.55
2023-09-08T02:46:42.128Z,12.70
2023-09-08T02:49:08.962Z,13.02
2023-09-08T02:54:02.336Z,10.93
2023-09-08T02:58:55.607Z,11.68
2023-09-08T03:01:22.360Z,13.02
2023-09-08T03:06:20.335Z,12.85
2023-09-08T03:08:46.987Z,15.93
2023-09-08T03:11:14.381Z,13.63
2023-09-08T03:13:43.395Z,15.63
2023-09-08T03:16:12.027Z,14.20
2023-09-08T03:18:39.425Z,13.65
2023-09-08T03:21:12.924Z,15.73
2023-09-08T03:23:40.888Z,12.70
2023-09-08T03:26:08.514Z,11.90
2023-09-08T03:28:37.062Z,14.32
2023-09-08T03:31:07.556Z,10.07
2023-09-08T03:33:34.574Z,11.40
2023-09-08T03:36:01.497Z,13.63
2023-09-08T03:38:28.398Z,16.25
2023-09-08T03:40:55.138Z,13.95
2023-09-08T03:45:48.733Z,12.20
2023-09-08T03:48:15.491Z,12.75
2023-09-08T03:53:09.956Z,16.55
2023-09-08T03:58:03.037Z,12.80
2023-09-08T04:00:31.229Z,14.15
2023-09-08T04:02:58.211Z,13.32
2023-09-08T04:05:25.116Z,11.90
2023-09-08T04:07:51.862Z,22.30
2023-09-08T04:12:45.716Z,11.88
2023-09-08T04:15:12.456Z,13.98
2023-09-08T04:20:07.656Z,12.65
2023-09-08T04:22:34.915Z,16.55
2023-09-08T04:25:02.115Z,15.13
2023-09-08T04:27:28.797Z,14.98
2023-09-08T04:29:55.482Z,12.77
2023-09-08T04:34:50.436Z,12.30
2023-09-08T04:45:04.886Z,13.90
2023-09-08T04:47:31.692Z,12.63
2023-09-08T04:52:27.105Z,20.42
2023-09-08T04:54:56.534Z,12.63
2023-09-08T04:57:23.972Z,20.08
2023-09-08T04:59:51.282Z,14.80
2023-09-08T05:02:19.695Z,20.25
2023-09-08T05:04:46.772Z,13.05
2023-09-08T05:07:14.659Z,18.80
2023-09-08T05:09:41.663Z,18.25
2023-09-08T05:14:35.296Z,14.23
2023-09-08T05:19:28.686Z,12.00
2023-09-08T05:24:22.943Z,14.82
2023-09-08T05:29:16.288Z,20.63
2023-09-08T05:34:12.425Z,16.83
2023-09-08T05:36:42.187Z,15.38
2023-09-08T05:39:18.661Z,23.23
2023-09-08T05:42:01.178Z,15.65
2023-09-08T05:44:27.908Z,17.13
2023-09-08T05:47:01.073Z,12.70
2023-09-08T05:49:27.963Z,17.90
2023-09-08T05:51:54.730Z,15.90
2023-09-08T05:54:21.251Z,17.38
2023-09-08T05:56:47.818Z,15.68
2023-09-08T05:59:30.507Z,16.73
2023-09-08T06:01:57.172Z,16.05
2023-09-08T06:04:23.977Z,20.30
2023-09-08T06:06:50.906Z,17.63
2023-09-08T06:09:17.902Z,21.10
2023-09-08T06:11:44.475Z,20.88
2023-09-08T06:14:10.967Z,16.35
2023-09-08T06:16:38.640Z,17.83
2023-09-08T06:19:05.340Z,20.83
2023-09-08T06:21:32.079Z,23.48
2023-09-08T06:26:25.569Z,16.77
2023-09-08T06:31:19.020Z,16.60
2023-09-08T06:33:45.905Z,15.35
2023-09-08T06:36:12.522Z,22.98
2023-09-08T06:38:39.080Z,18.88
2023-09-08T06:41:12.574Z,21.13
2023-09-08T06:43:39.418Z,22.80
2023-09-08T06:46:06.032Z,22.70
2023-09-08T06:48:32.548Z,14.70
2023-09-08T06:50:59.991Z,19.45
2023-09-08T06:53:26.684Z,15.40
2023-09-08T06:58:19.787Z,19.25
2023-09-08T07:00:46.387Z,17.85
2023-09-08T07:05:42.902Z,16.92
2023-09-08T07:08:09.659Z,22.75
2023-09-08T07:13:03.142Z,19.20
2023-09-08T07:17:56.372Z,17.63
2023-09-08T07:20:23.217Z,15.45
2023-09-08T07:22:49.697Z,16.80
2023-09-08T07:25:16.337Z,13.23
2023-09-08T07:27:42.938Z,19.52
2023-09-08T07:30:09.921Z,14.38
2023-09-08T07:32:36.470Z,14.45
2023-09-08T07:35:03.142Z,17.27
2023-09-08T07:39:56.293Z,17.48
2023-09-08T07:44:53.321Z,13.77
2023-09-08T07:47:19.766Z,15.88
2023-09-08T07:49:48.781Z,12.65
2023-09-08T07:52:16.330Z,11.40
2023-09-08T07:54:45.892Z,16.55
2023-09-08T07:57:14.635Z,19.30
2023-09-08T07:59:41.172Z,15.25
2023-09-08T08:02:07.742Z,20.17
2023-09-08T08:04:34.309Z,11.73
2023-09-08T08:07:00.848Z,12.70
2023-09-08T08:09:27.317Z,15.27
2023-09-08T08:11:53.930Z,15.32
2023-09-08T08:16:46.943Z,12.18
2023-09-08T08:29:08.549Z,13.68
2023-09-08T08:32:03.040Z,27.48
2023-09-08T08:34:32.863Z,12.82
2023-09-08T08:37:14.279Z,10.57
2023-09-08T08:39:48.261Z,14.65
2023-09-08T08:46:07.824Z,15.07
2023-09-08T08:48:42.860Z,14.25
2023-09-08T08:53:40.837Z,13.07
2023-09-08T08:56:49.678Z,11.48
2023-09-08T09:01:51.181Z,13.23
2023-09-08T09:04:18.822Z,12.50
2023-09-08T09:06:48.517Z,10.02
2023-09-08T09:09:16.212Z,11.02
2023-09-08T09:11:43.185Z,17.88
2023-09-08T09:14:10.309Z,9.90
2023-09-08T09:16:41.818Z,13.82
2023-09-08T09:19:09.968Z,10.23
2023-09-08T09:25:01.005Z,10.27
2023-09-08T09:27:32.318Z,10.60
2023-09-08T09:30:02.181Z,17.77
2023-09-08T09:35:13.271Z,14.30
2023-09-08T09:41:19.542Z,11.10
2023-09-08T09:43:46.363Z,13.80
2023-09-08T09:46:13.057Z,13.40
2023-09-08T09:48:42.462Z,9.52
2023-09-08T09:51:49.243Z,10.65
2023-09-08T09:54:46.585Z,13.07
2023-09-08T10:00:03.129Z,11.88
2023-09-08T10:02:32.010Z,11.60
2023-09-08T10:05:12.891Z,9.70
2023-09-08T10:07:40.982Z,15.73
2023-09-08T10:12:56.770Z,11.23
2023-09-08T10:15:28.455Z,14.27
2023-09-08T10:18:05.986Z,11.98
2023-09-08T10:20:34.884Z,12.05
2023-09-08T10:23:17.163Z,12.23
2023-09-08T10:26:52.660Z,11.13
2023-09-08T10:29:54.734Z,13.15
2023-09-08T10:32:38.013Z,16.75
2023-09-08T10:41:25.539Z,9.95
2023-09-08T10:44:09.045Z,12.40
2023-09-08T10:46:36.461Z,11.88
2023-09-08T10:49:18.378Z,11.25
2023-09-08T10:51:46.084Z,10.43
2023-09-08T10:54:13.044Z,10.35
2023-09-08T10:56:50.885Z,9.32
2023-09-08T10:59:17.807Z,18.27
2023-09-08T11:01:44.384Z,13.20
2023-09-08T11:06:58.847Z,11.50
2023-09-08T11:09:25.381Z,12.55
2023-09-08T11:14:18.740Z,7.20
2023-09-08T11:16:45.363Z,9.55
2023-09-08T11:19:28.519Z,9.63
2023-09-08T11:21:55.080Z,6.78
2023-09-08T11:27:04.306Z,13.25
2023-09-08T11:29:30.818Z,10.68
2023-09-08T11:34:23.893Z,13.65
2023-09-08T11:36:50.460Z,8.23
2023-09-08T11:39:16.950Z,9.90
2023-09-08T11:44:10.050Z,12.98
2023-09-08T11:46:36.717Z,11.38
2023-09-08T11:49:05.457Z,14.52
2023-09-08T11:51:31.939Z,8.20
2023-09-08T11:56:25.294Z,9.05
2023-09-08T11:58:52.410Z,13.02
2023-09-08T12:01:19.934Z,9.73
2023-09-08T12:04:22.943Z,11.80
2023-09-08T12:06:51.005Z,9.05
2023-09-08T12:09:18.010Z,9.25
2023-09-08T12:11:44.854Z,11.23
2023-09-08T12:14:13.963Z,9.63
2023-09-08T12:16:41.599Z,15.23
2023-09-08T12:19:09.266Z,8.38
2023-09-08T12:21:55.515Z,6.97
2023-09-08T12:24:50.244Z,8.68
2023-09-08T12:27:18.086Z,14.90
2023-09-08T12:29:55.434Z,7.57
2023-09-08T12:32:23.181Z,8.75
2023-09-08T12:34:49.688Z,10.13
2023-09-08T12:39:46.684Z,8.73
2023-09-08T12:44:40.215Z,11.40
2023-09-08T12:49:33.817Z,8.38
2023-09-08T12:52:00.338Z,9.52
2023-09-08T12:56:54.064Z,6.50
2023-09-08T12:59:20.617Z,8.65
2023-09-08T13:01:47.086Z,6.10
2023-09-08T13:06:50.746Z,6.13
2023-09-08T13:09:17.766Z,6.28
2023-09-08T13:11:44.982Z,8.25
2023-09-08T13:14:11.597Z,8.50
2023-09-08T13:16:38.266Z,7.97
2023-09-08T13:19:05.116Z,8.10
2023-09-08T13:21:31.990Z,7.93
2023-09-08T13:24:07.829Z,9.52
2023-09-08T13:29:39.938Z,10.55
2023-09-08T13:32:07.101Z,8.20
2023-09-08T13:38:33.395Z,11.02
2023-09-08T13:41:08.933Z,8.23
2023-09-08T13:43:56.019Z,18.35
2023-09-08T13:46:23.150Z,8.32
2023-09-08T13:48:50.704Z,10.90
2023-09-08T13:51:28.095Z,7.18
2023-09-08T13:58:09.420Z,9.32
2023-09-08T14:00:39.562Z,9.13
2023-09-08T14:09:54.590Z,7.47
2023-09-08T14:12:33.334Z,7.32
2023-09-08T14:15:08.141Z,8.93
2023-09-08T14:22:11.264Z,9.05
2023-09-08T14:24:48.513Z,10.80
2023-09-08T14:27:15.491Z,11.02
2023-09-08T14:29:45.395Z,10.18
2023-09-08T14:36:21.107Z,18.63
2023-09-08T14:39:28.397Z,9.10
2023-09-08T14:41:59.694Z,7.55
2023-09-08T14:44:40.828Z,7.93
2023-09-08T14:47:29.487Z,11.63
2023-09-08T14:53:43.111Z,11.93
2023-09-08T14:56:10.077Z,12.50
2023-09-08T14:59:05.803Z,12.13
2023-09-08T15:01:35.082Z,7.88
2023-09-08T15:04:02.044Z,7.07
2023-09-08T15:06:32.489Z,6.60
2023-09-08T15:09:00.400Z,10.43
2023-09-08T15:11:27.955Z,8.35
2023-09-08T15:13:58.662Z,10.52
2023-09-08T15:16:25.352Z,10.35
2023-09-08T15:19:18.107Z,8.57
2023-09-08T15:21:44.929Z,8.07
2023-09-08T15:24:11.796Z,10.02
2023-09-08T15:26:41.756Z,8.70
2023-09-08T15:29:09.814Z,7.35
2023-09-08T15:31:50.098Z,8.32
2023-09-08T15:34:27.080Z,6.80
2023-09-08T15:36:54.139Z,9.07
2023-09-08T15:39:23.626Z,10.02
2023-09-08T15:41:50.895Z,8.32
2023-09-08T15:44:29.694Z,10.60
2023-09-08T15:47:36.515Z,9.38
2023-09-08T15:50:20.195Z,8.77
2023-09-08T16:00:34.115Z,11.82
2023-09-08T16:05:59.695Z,7.40
2023-09-08T16:08:27.127Z,8.57
2023-09-08T16:10:54.574Z,6.85
2023-09-08T16:13:21.989Z,10.70
2023-09-08T16:15:48.881Z,9.20
2023-09-08T16:18:16.030Z,11.40
2023-09-08T16:20:51.482Z,11.68
2023-09-08T16:23:18.939Z,7.50
2023-09-08T16:28:34.284Z,9.98
2023-09-08T16:31:16.164Z,10.55
2023-09-08T16:33:46.180Z,14.00
2023-09-08T16:36:17.906Z,9.05
2023-09-08T16:39:12.868Z,8.32
2023-09-08T16:41:43.894Z,11.57
2023-09-08T16:44:14.273Z,13.45
2023-09-08T16:46:41.241Z,12.05
2023-09-08T17:09:40.277Z,7.95
2023-09-08T17:12:08.364Z,15.57
2023-09-08T17:14:36.275Z,11.43
2023-09-08T17:17:05.381Z,9.80
2023-09-08T17:19:32.264Z,16.90
2023-09-08T17:22:01.250Z,11.38
2023-09-08T17:24:28.656Z,15.18
2023-09-08T17:26:56.558Z,14.30
2023-09-08T17:29:23.089Z,11.15
2023-09-08T17:34:21.182Z,14.93
2023-09-08T17:36:57.123Z,21.05
2023-09-08T17:39:24.710Z,12.05
2023-09-08T17:41:51.245Z,10.07
2023-09-08T17:44:21.714Z,11.73
2023-09-08T17:46:50.105Z,17.00
2023-09-08T17:49:16.726Z,18.67
2023-09-08T17:54:09.719Z,22.77
2023-09-08T17:59:02.625Z,12.60
2023-09-08T18:01:29.285Z,12.70
2023-09-08T18:03:56.068Z,17.58
2023-09-08T18:06:22.664Z,11.15
2023-09-08T18:08:52.707Z,13.60
2023-09-08T18:11:22.040Z,14.05
2023-09-08T18:13:49.657Z,14.13
2023-09-08T18:16:16.507Z,10.20
2023-09-08T18:18:44.813Z,11.52
2023-09-08T18:21:16.116Z,14.00
2023-09-08T18:23:42.746Z,13.98
2023-09-08T18:28:36.078Z,21.15
2023-09-08T18:31:06.002Z,12.88
2023-09-08T18:33:32.574Z,11.90
2023-09-08T18:38:26.742Z,9.88
2023-09-08T18:40:53.488Z,14.10
2023-09-08T18:43:20.101Z,14.80
2023-09-08T18:48:13.613Z,19.00
2023-09-08T18:50:40.133Z,11.43
2023-09-08T18:53:06.841Z,12.57
2023-09-08T18:58:03.784Z,19.13
2023-09-08T19:00:31.040Z,15.18
2023-09-08T19:02:59.864Z,17.45
2023-09-08T19:05:26.852Z,14.48
2023-09-08T19:07:53.580Z,13.25
2023-09-08T19:10:20.289Z,13.65
2023-09-08T19:12:47.016Z,13.85
2023-09-08T19:15:13.832Z,13.50
2023-09-08T19:17:40.755Z,17.45
2023-09-08T19:20:10.674Z,14.55
2023-09-08T19:22:37.740Z,12.70
2023-09-08T19:25:10.692Z,16.20
2023-09-08T19:27:37.610Z,17.08
2023-09-08T19:30:08.006Z,11.18
2023-09-08T19:32:34.661Z,12.07
2023-09-08T19:37:27.997Z,15.98
2023-09-08T19:42:20.972Z,13.23
2023-09-08T19:44:47.480Z,15.88
2023-09-08T19:47:14.178Z,14.27
2023-09-08T19:52:13.711Z,17.02
2023-09-08T19:54:41.266Z,17.25
2023-09-08T19:57:07.735Z,15.73
2023-09-08T19:59:36.675Z,15.15
2023-09-08T20:02:03.211Z,18.88
2023-09-08T20:06:58.368Z,22.80
2023-09-08T20:09:25.643Z,18.23
2023-09-08T20:11:52.716Z,16.05
2023-09-08T20:14:19.638Z,18.83
2023-09-08T20:16:46.138Z,19.05
2023-09-08T20:19:15.731Z,18.77
2023-09-08T20:21:42.256Z,15.55
2023-09-08T20:24:08.912Z,16.33
2023-09-08T20:29:01.922Z,17.48
2023-09-08T20:31:28.436Z,13.75
2023-09-08T20:33:55.221Z,15.32
2023-09-08T20:36:21.678Z,18.73
2023-09-08T20:38:48.179Z,18.73
2023-09-08T20:41:14.757Z,27.52
2023-09-08T20:46:08.472Z,19.52
2023-09-08T20:48:37.314Z,15.95
2023-09-08T20:51:05.999Z,19.23
2023-09-08T20:53:33.882Z,24.13
2023-09-08T20:56:00.618Z,23.85
2023-09-08T20:58:27.230Z,18.98
2023-09-08T21:00:57.382Z,21.60
2023-09-08T21:03:24.078Z,15.77
2023-09-08T21:08:19.714Z,25.33
2023-09-08T21:10:46.866Z,18.65
2023-09-08T21:13:13.362Z,16.27
2023-09-08T21:15:39.944Z,19.63
2023-09-08T21:18:07.649Z,15.13
2023-09-08T21:20:37.252Z,14.63
2023-09-08T21:23:04.273Z,17.95
2023-09-08T21:25:32.142Z,20.83
2023-09-08T21:27:58.931Z,19.95
2023-09-08T21:32:52.328Z,18.90
2023-09-08T21:35:19.175Z,16.00
2023-09-08T21:40:12.439Z,19.42
2023-09-08T21:42:38.977Z,17.77
2023-09-08T21:45:07.655Z,20.08
2023-09-08T21:47:34.251Z,19.48
2023-09-08T21:50:00.737Z,16.23
2023-09-08T21:52:37.408Z,20.17
2023-09-08T21:55:05.514Z,21.42
2023-09-08T21:57:32.058Z,18.83
2023-09-08T21:59:58.584Z,18.92
2023-09-08T22:02:25.300Z,17.35
2023-09-08T22:04:52.191Z,21.65
2023-09-08T22:07:18.769Z,21.70
2023-09-08T22:09:45.245Z,21.10
2023-09-08T22:12:16.486Z,16.17
2023-09-08T22:14:42.960Z,22.38
2023-09-08T22:17:09.588Z,18.15
2023-09-08T22:22:02.538Z,18.00
2023-09-08T22:24:29.481Z,20.35
2023-09-08T22:29:23.495Z,17.13
2023-09-08T22:31:50.164Z,20.13
2023-09-08T22:36:43.441Z,17.92
2023-09-08T22:39:12.649Z,18.80
2023-09-08T22:41:39.727Z,21.08
2023-09-08T22:44:06.694Z,18.90
2023-09-08T22:46:33.401Z,18.83
2023-09-08T22:51:26.483Z,19.17
2023-09-08T22:53:53.367Z,20.63
2023-09-08T22:56:20.026Z,17.45
2023-09-08T22:58:46.562Z,18.80
2023-09-08T23:01:13.162Z,18.15
2023-09-08T23:06:06.785Z,17.00
2023-09-08T23:10:59.850Z,20.15
2023-09-08T23:13:26.287Z,17.17
2023-09-08T23:15:53.313Z,21.25
2023-09-08T23:18:20.220Z,20.70
2023-09-08T23:20:48.924Z,19.63
2023-09-08T23:23:15.760Z,18.88
2023-09-08T23:25:42.212Z,16.73
2023-09-08T23:28:08.709Z,24.40
2023-09-08T23:30:35.874Z,19.63
2023-09-08T23:33:02.512Z,18.45
2023-09-08T23:37:55.652Z,15.20
2023-09-08T23:40:22.085Z,20.20
2023-09-08T23:42:48.538Z,17.58
2023-09-08T23:45:14.971Z,22.65
2023-09-08T23:47:41.518Z,18.92
2023-09-08T23:50:08.791Z,14.35
2023-09-08T23:52:35.285Z,18.73
2023-09-08T23:55:01.729Z,17.98
2023-09-08T23:57:28.278Z,17.42
2023-09-08T23:59:54.906Z,19.50
